Time,TemperatureF,DewpointF,PressureIn,WindDirection,WindDirectionDegrees,WindSpeedMPH,WindSpeedGustMPH,Humidity,HourlyPrecipIn,Conditions,Clouds,dailyrainin,SoftwareType,DateUTC
2013-08-18 00:02:00,59.9,58.0,30.21,East,79,0.0,1.0,94,0.00,,,0.00,weatherlink.com 1.10,2013-08-18 05:02:00,
2013-08-18 00:17:00,59.4,57.0,30.21,East,79,0.0,0.0,93,0.00,,,0.00,weatherlink.com 1.10,2013-08-18 05:17:00,
2013-08-18 00:32:00,59.1,57.0,30.21,East,79,0.0,0.0,93,0.00,,,0.00,weatherlink.com 1.10,2013-08-18 05:32:00,
2013-08-18 00:47:00,58.5,57.0,30.21,East,79,0.0,0.0,93,0.00,,,0.00,weatherlink.com 1.10,2013-08-18 05:47:00,
2013-08-18 01:02:00,58.6,56.0,30.21,East,79,0.0,0.0,92,0.00,,,0.00,weatherlink.com 1.10,2013-08-18 06:02:00,
2013-08-18 01:17:00,58.0,56.0,30.21,East,79,0.0,0.0,93,0.00,,,0.00,weatherlink.com 1.10,2013-08-18 06:17:00,
2013-08-18 01:32:00,59.1,57.0,30.21,East,79,0.0,0.0,93,0.00,,,0.00,weatherlink.com 1.10,2013-08-18 06:32:00,
2013-08-18 01:47:00,57.8,56.0,30.21,East,79,0.0,0.0,92,0.00,,,0.00,weatherlink.com 1.10,2013-08-18 06:47:00,
2013-08-18 02:02:00,57.8,56.0,30.22,East,79,0.0,1.0,94,0.00,,,0.00,weatherlink.com 1.10,2013-08-18 07:02:00,
2013-08-18 02:17:00,57.5,56.0,30.22,East,79,0.0,0.0,94,0.00,,,0.00,weatherlink.com 1.10,2013-08-18 07:17:00,
2013-08-18 02:32:00,57.5,56.0,30.21,East,79,0.0,0.0,93,0.00,,,0.00,weatherlink.com 1.10,2013-08-18 07:32:00,
2013-08-18 02:47:00,58.0,56.0,30.21,East,79,0.0,0.0,92,0.00,,,0.00,weatherlink.com 1.10,2013-08-18 07:47:00,
2013-08-18 03:02:00,58.0,56.0,30.21,East,79,0.0,1.0,93,0.00,,,0.00,weatherlink.com 1.10,2013-08-18 08:02:00,
2013-08-18 03:17:00,57.6,56.0,30.21,East,79,0.0,0.0,93,0.00,,,0.00,weatherlink.com 1.10,2013-08-18 08:17:00,
2013-08-18 03:32:00,58.4,56.0,30.20,East,79,0.0,1.0,93,0.00,,,0.00,weatherlink.com 1.10,2013-08-18 08:32:00,
2013-08-18 03:47:00,57.1,55.0,30.20,East,79,0.0,0.0,93,0.00,,,0.00,weatherlink.com 1.10,2013-08-18 08:47:00,
2013-08-18 04:02:00,57.2,55.0,30.20,East,79,0.0,0.0,93,0.00,,,0.00,weatherlink.com 1.10,2013-08-18 09:02:00,
2013-08-18 04:17:00,57.0,55.0,30.20,East,79,0.0,0.0,92,0.00,,,0.00,weatherlink.com 1.10,2013-08-18 09:17:00,
2013-08-18 04:32:00,57.3,55.0,30.21,East,79,0.0,0.0,93,0.00,,,0.00,weatherlink.com 1.10,2013-08-18 09:32:00,
2013-08-18 04:47:00,56.8,55.0,30.21,East,79,0.0,0.0,94,0.00,,,0.00,weatherlink.com 1.10,2013-08-18 09:47:00,
2013-08-18 05:02:00,56.1,54.0,30.21,East,79,0.0,0.0,94,0.00,,,0.00,weatherlink.com 1.10,2013-08-18 10:02:00,
2013-08-18 05:18:00,55.9,54.0,30.22,East,79,0.0,0.0,94,0.00,,,0.00,weatherlink.com 1.10,2013-08-18 10:18:00,
2013-08-18 05:33:00,55.8,54.0,30.22,East,79,0.0,0.0,94,0.00,,,0.00,weatherlink.com 1.10,2013-08-18 10:33:00,
2013-08-18 05:48:00,56.3,55.0,30.22,East,79,0.0,0.0,94,0.00,,,0.00,weatherlink.com 1.10,2013-08-18 10:48:00,
2013-08-18 06:03:00,56.3,55.0,30.23,East,79,0.0,0.0,94,0.00,,,0.00,weatherlink.com 1.10,2013-08-18 11:03:00,
2013-08-18 06:18:00,56.3,55.0,30.23,East,79,0.0,0.0,94,0.00,,,0.00,weatherlink.com 1.10,2013-08-18 11:18:00,
2013-08-18 06:33:00,56.9,55.0,30.24,East,79,0.0,0.0,94,0.00,,,0.00,weatherlink.com 1.10,2013-08-18 11:33:00,
2013-08-18 06:48:00,56.8,55.0,30.23,East,79,0.0,0.0,94,0.00,,,0.00,weatherlink.com 1.10,2013-08-18 11:48:00,
2013-08-18 07:03:00,58.6,56.0,30.24,East,79,0.0,0.0,92,0.00,,,0.00,weatherlink.com 1.10,2013-08-18 12:03:00,
2013-08-18 07:18:00,59.7,58.0,30.24,East,79,0.0,0.0,93,0.00,,,0.00,weatherlink.com 1.10,2013-08-18 12:18:00,
2013-08-18 07:33:00,61.7,59.0,30.24,East,79,1.0,1.0,91,0.00,,,0.00,weatherlink.com 1.10,2013-08-18 12:33:00,
2013-08-18 07:48:00,64.4,61.0,30.24,East,79,1.0,2.0,87,0.00,,,0.00,weatherlink.com 1.10,2013-08-18 12:48:00,
2013-08-18 08:03:00,66.3,60.0,30.24,East,79,1.0,5.0,81,0.00,,,0.00,weatherlink.com 1.10,2013-08-18 13:03:00,
2013-08-18 08:18:00,67.6,61.0,30.25,East,79,1.0,4.0,80,0.00,,,0.00,weatherlink.com 1.10,2013-08-18 13:18:00,
2013-08-18 08:33:00,67.5,61.0,30.25,ESE,107,2.0,5.0,79,0.00,,,0.00,weatherlink.com 1.10,2013-08-18 13:33:00,
2013-08-18 08:48:00,68.4,62.0,30.25,SE,128,2.0,5.0,81,0.00,,,0.00,weatherlink.com 1.10,2013-08-18 13:48:00,
2013-08-18 09:03:00,69.3,62.0,30.25,East,87,0.0,5.0,78,0.00,,,0.00,weatherlink.com 1.10,2013-08-18 14:03:00,
2013-08-18 09:18:00,69.5,63.0,30.25,ESE,123,3.0,4.0,79,0.00,,,0.00,weatherlink.com 1.10,2013-08-18 14:18:00,
2013-08-18 09:33:00,70.5,63.0,30.25,ESE,123,1.0,4.0,78,0.00,,,0.00,weatherlink.com 1.10,2013-08-18 14:33:00,
2013-08-18 09:48:00,72.8,64.0,30.25,East,80,0.0,3.0,74,0.00,,,0.00,weatherlink.com 1.10,2013-08-18 14:48:00,
2013-08-18 10:03:00,72.8,64.0,30.25,East,87,1.0,4.0,73,0.00,,,0.00,weatherlink.com 1.10,2013-08-18 15:03:00,
2013-08-18 10:18:00,74.1,64.0,30.25,ESE,122,1.0,5.0,71,0.00,,,0.00,weatherlink.com 1.10,2013-08-18 15:18:00,
2013-08-18 10:33:00,75.1,63.0,30.25,ESE,109,1.0,6.0,67,0.00,,,0.00,weatherlink.com 1.10,2013-08-18 15:33:00,
2013-08-18 10:48:00,75.7,64.0,30.24,SE,141,2.0,9.0,66,0.00,,,0.00,weatherlink.com 1.10,2013-08-18 15:48:00,
2013-08-18 11:03:00,76.6,64.0,30.24,NE,52,6.0,9.0,65,0.00,,,0.00,weatherlink.com 1.10,2013-08-18 16:03:00,
2013-08-18 11:18:00,77.3,63.0,30.24,NE,53,2.0,9.0,62,0.00,,,0.00,weatherlink.com 1.10,2013-08-18 16:18:00,
2013-08-18 11:33:00,77.0,63.0,30.23,ENE,75,7.0,7.0,62,0.00,,,0.00,weatherlink.com 1.10,2013-08-18 16:33:00,
2013-08-18 11:48:00,76.2,63.0,30.23,East,83,4.0,5.0,63,0.00,,,0.00,weatherlink.com 1.10,2013-08-18 16:48:00,
2013-08-18 12:03:00,78.3,64.0,30.22,South,177,6.0,7.0,61,0.00,,,0.00,weatherlink.com 1.10,2013-08-18 17:03:00,
2013-08-18 12:18:00,77.9,64.0,30.22,SSE,163,5.0,7.0,62,0.00,,,0.00,weatherlink.com 1.10,2013-08-18 17:18:00,
2013-08-18 12:33:00,77.8,63.0,30.21,SSE,166,3.0,7.0,60,0.00,,,0.00,weatherlink.com 1.10,2013-08-18 17:33:00,
2013-08-18 12:48:00,77.8,64.0,30.21,SSE,151,2.0,6.0,62,0.00,,,0.00,weatherlink.com 1.10,2013-08-18 17:48:00,
2013-08-18 13:03:00,78.5,62.0,30.21,SE,133,3.0,8.0,57,0.00,,,0.00,weatherlink.com 1.10,2013-08-18 18:03:00,
2013-08-18 13:18:00,78.4,63.0,30.20,SSE,164,3.0,7.0,59,0.00,,,0.00,weatherlink.com 1.10,2013-08-18 18:18:00,
2013-08-18 13:34:00,79.2,64.0,30.20,SSE,161,6.0,9.0,59,0.00,,,0.00,weatherlink.com 1.10,2013-08-18 18:34:00,
2013-08-18 13:49:00,79.0,61.0,30.19,East,79,4.0,7.0,55,0.00,,,0.00,weatherlink.com 1.10,2013-08-18 18:49:00,
2013-08-18 14:04:00,79.1,63.0,30.19,SE,137,3.0,3.0,59,0.00,,,0.00,weatherlink.com 1.10,2013-08-18 19:04:00,
2013-08-18 14:19:00,79.2,61.0,30.18,SSE,155,2.0,10.0,54,0.00,,,0.00,weatherlink.com 1.10,2013-08-18 19:19:00,
2013-08-18 14:34:00,80.2,60.0,30.18,SSE,157,0.0,3.0,51,0.00,,,0.00,weatherlink.com 1.10,2013-08-18 19:34:00,
2013-08-18 14:49:00,79.6,62.0,30.18,SE,124,4.0,6.0,56,0.00,,,0.00,weatherlink.com 1.10,2013-08-18 19:49:00,
2013-08-18 15:04:00,81.1,62.0,30.17,South,172,3.0,4.0,53,0.00,,,0.00,weatherlink.com 1.10,2013-08-18 20:04:00,
2013-08-18 15:19:00,80.1,62.0,30.16,South,170,4.0,6.0,54,0.00,,,0.00,weatherlink.com 1.10,2013-08-18 20:19:00,
2013-08-18 15:34:00,80.3,63.0,30.16,South,174,1.0,3.0,56,0.00,,,0.00,weatherlink.com 1.10,2013-08-18 20:34:00,
2013-08-18 15:49:00,81.5,63.0,30.16,SSW,200,0.0,5.0,53,0.00,,,0.00,weatherlink.com 1.10,2013-08-18 20:49:00,
2013-08-18 16:04:00,81.3,62.0,30.16,East,85,2.0,3.0,52,0.00,,,0.00,weatherlink.com 1.10,2013-08-18 21:04:00,
2013-08-18 16:19:00,80.0,63.0,30.16,SSE,153,0.0,5.0,56,0.00,,,0.00,weatherlink.com 1.10,2013-08-18 21:19:00,
2013-08-18 16:34:00,80.2,62.0,30.15,East,86,1.0,3.0,54,0.00,,,0.00,weatherlink.com 1.10,2013-08-18 21:34:00,
2013-08-18 16:49:00,80.4,63.0,30.15,East,86,0.0,3.0,56,0.00,,,0.00,weatherlink.com 1.10,2013-08-18 21:49:00,
2013-08-18 17:04:00,79.9,63.0,30.15,East,86,0.0,3.0,56,0.00,,,0.00,weatherlink.com 1.10,2013-08-18 22:04:00,
2013-08-18 17:19:00,80.4,63.0,30.15,East,86,1.0,2.0,56,0.00,,,0.00,weatherlink.com 1.10,2013-08-18 22:19:00,
2013-08-18 17:34:00,80.2,63.0,30.14,NNE,20,8.0,13.0,57,0.00,,,0.00,weatherlink.com 1.10,2013-08-18 22:34:00,
2013-08-18 17:49:00,79.0,63.0,30.14,NNE,31,8.0,8.0,59,0.00,,,0.00,weatherlink.com 1.10,2013-08-18 22:49:00,
2013-08-18 18:04:00,79.6,63.0,30.14,NE,38,5.0,8.0,57,0.00,,,0.00,weatherlink.com 1.10,2013-08-18 23:04:00,
2013-08-18 18:19:00,77.9,62.0,30.14,NNE,33,4.0,10.0,58,0.00,,,0.00,weatherlink.com 1.10,2013-08-18 23:19:00,
2013-08-18 18:34:00,77.3,62.0,30.14,NNE,30,3.0,10.0,60,0.00,,,0.00,weatherlink.com 1.10,2013-08-18 23:34:00,
2013-08-18 18:49:00,76.8,62.0,30.15,NE,41,5.0,6.0,61,0.00,,,0.00,weatherlink.com 1.10,2013-08-18 23:49:00,
2013-08-18 19:04:00,76.9,62.0,30.15,ENE,73,1.0,8.0,61,0.00,,,0.00,weatherlink.com 1.10,2013-08-19 00:04:00,
2013-08-18 19:19:00,75.9,62.0,30.15,NE,44,2.0,7.0,63,0.00,,,0.00,weatherlink.com 1.10,2013-08-19 00:19:00,
2013-08-18 19:34:00,74.1,62.0,30.15,NE,42,5.0,7.0,65,0.00,,,0.00,weatherlink.com 1.10,2013-08-19 00:34:00,
2013-08-18 19:49:00,73.4,61.0,30.15,NE,48,2.0,7.0,66,0.00,,,0.00,weatherlink.com 1.10,2013-08-19 00:49:00,
2013-08-18 20:04:00,72.8,61.0,30.15,ENE,57,2.0,5.0,67,0.00,,,0.00,weatherlink.com 1.10,2013-08-19 01:04:00,
2013-08-18 20:19:00,72.0,61.0,30.15,ENE,58,2.0,5.0,68,0.00,,,0.00,weatherlink.com 1.10,2013-08-19 01:19:00,
2013-08-18 20:34:00,71.3,61.0,30.15,ENE,58,2.0,3.0,69,0.00,,,0.00,weatherlink.com 1.10,2013-08-19 01:34:00,
2013-08-18 20:49:00,71.0,61.0,30.16,ENE,58,1.0,3.0,70,0.00,,,0.00,weatherlink.com 1.10,2013-08-19 01:49:00,
2013-08-18 21:04:00,70.3,60.0,30.16,ENE,58,2.0,5.0,71,0.00,,,0.00,weatherlink.com 1.10,2013-08-19 02:04:00,
2013-08-18 21:19:00,69.1,61.0,30.16,ENE,58,0.0,3.0,74,0.00,,,0.00,weatherlink.com 1.10,2013-08-19 02:19:00,
2013-08-18 21:34:00,68.4,60.0,30.17,ENE,58,1.0,3.0,75,0.00,,,0.00,weatherlink.com 1.10,2013-08-19 02:34:00,
2013-08-18 21:49:00,68.0,60.0,30.16,ENE,58,1.0,3.0,75,0.00,,,0.00,weatherlink.com 1.10,2013-08-19 02:49:00,
2013-08-18 22:04:00,66.8,60.0,30.16,ENE,58,1.0,2.0,78,0.00,,,0.00,weatherlink.com 1.10,2013-08-19 03:04:00,
2013-08-18 22:19:00,65.1,60.0,30.16,ENE,58,0.0,1.0,83,0.00,,,0.00,weatherlink.com 1.10,2013-08-19 03:19:00,
2013-08-18 22:34:00,64.8,60.0,30.16,ENE,58,0.0,2.0,83,0.00,,,0.00,weatherlink.com 1.10,2013-08-19 03:34:00,
2013-08-18 22:49:00,65.3,59.0,30.16,ENE,58,0.0,2.0,81,0.00,,,0.00,weatherlink.com 1.10,2013-08-19 03:49:00,
2013-08-18 23:04:00,64.3,59.0,30.16,ENE,58,0.0,2.0,82,0.00,,,0.00,weatherlink.com 1.10,2013-08-19 04:04:00,
2013-08-18 23:19:00,63.2,59.0,30.16,ENE,58,0.0,0.0,85,0.00,,,0.00,weatherlink.com 1.10,2013-08-19 04:19:00,
2013-08-18 23:34:00,62.3,58.0,30.16,ENE,58,0.0,1.0,87,0.00,,,0.00,weatherlink.com 1.10,2013-08-19 04:34:00,
2013-08-18 23:49:00,61.6,58.0,30.16,ENE,58,0.0,0.0,89,0.00,,,0.00,weatherlink.com 1.10,2013-08-19 04:49:00,